Time;durP1;ratioP1;P1;durP2;ratioP2;P2;SDS_P1;SDS_P2;PMS_P1;PMS_P2;Temp;Humidity;BMP_temperature;BMP_pressure;BME280_temperature;BME280_humidity;BME280_pressure;Samples;Min_cycle;Max_cycle;Signal;HPM_P1;HPM_P2
2022/12/27 00:00:47;;;;;;;1.23;1.23;;;;;;;4.51;100.00;99497.63;4199441;28;20215;-49
2022/12/27 00:02:49;;;;;;;1.52;1.30;;;;;;;4.41;100.00;99495.22;4189750;28;20200;-49
2022/12/27 00:04:51;;;;;;;1.40;1.15;;;;;;;4.41;100.00;99497.91;4217088;27;20218;-49
2022/12/27 00:06:53;;;;;;;1.80;1.27;;;;;;;4.28;100.00;99492.31;4192648;28;20207;-49
2022/12/27 00:08:55;;;;;;;1.77;1.30;;;;;;;4.42;100.00;99491.50;4197954;28;20262;-50
2022/12/27 00:11:12;;;;;;;1.50;1.35;;;;;;;4.42;100.00;99490.66;4206043;28;20238;-50
2022/12/27 00:13:14;;;;;;;1.00;1.00;;;;;;;4.32;100.00;99499.06;4202987;28;20781;-49
2022/12/27 00:15:16;;;;;;;3.10;1.55;;;;;;;4.26;100.00;99505.22;4203449;28;20722;-49
2022/12/27 00:17:18;;;;;;;1.13;1.10;;;;;;;4.26;100.00;99502.50;4201342;28;20298;-49
2022/12/27 00:19:19;;;;;;;1.85;1.70;;;;;;;4.24;100.00;99507.28;4218659;27;20681;-50
2022/12/27 00:21:22;;;;;;;2.00;1.40;;;;;;;4.15;100.00;99502.94;4218425;27;20234;-50
2022/12/27 00:23:24;;;;;;;1.50;1.40;;;;;;;4.22;100.00;99498.50;4202900;28;20343;-49
2022/12/27 00:25:26;;;;;;;0.90;0.90;;;;;;;4.18;100.00;99501.75;4215247;27;20211;-49
2022/12/27 00:27:27;;;;;;;1.25;1.13;;;;;;;4.21;100.00;99501.38;4202426;28;20234;-49
2022/12/27 00:29:29;;;;;;;3.00;1.58;;;;;;;4.31;100.00;99508.22;4205490;28;20264;-49
2022/12/27 00:31:32;;;;;;;2.83;1.67;;;;;;;4.22;100.00;99498.50;4214874;27;20231;-49
2022/12/27 00:33:35;;;;;;;3.00;2.38;;;;;;;4.34;100.00;99497.00;4198216;28;20297;-49
2022/12/27 00:35:40;;;;;;;3.65;1.45;;;;;;;4.23;100.00;99502.88;4214957;27;20589;-50
2022/12/27 00:37:41;;;;;;;2.50;1.77;;;;;;;4.21;100.00;99496.78;4186953;28;20243;-49
2022/12/27 00:39:43;;;;;;;1.92;1.63;;;;;;;4.11;100.00;99500.81;4215032;27;20272;-49
2022/12/27 00:41:45;;;;;;;10.82;2.40;;;;;;;4.03;100.00;99492.75;4215683;27;20298;-50
2022/12/27 00:43:47;;;;;;;3.03;1.58;;;;;;;3.99;100.00;99497.72;4217835;27;20233;-49
2022/12/27 00:45:49;;;;;;;2.20;1.15;;;;;;;4.01;100.00;99495.66;4200454;28;20208;-50
2022/12/27 00:47:51;;;;;;;3.45;1.50;;;;;;;4.09;100.00;99498.31;4204868;28;20206;-49
2022/12/27 00:49:53;;;;;;;1.17;1.17;;;;;;;4.15;100.00;99500.25;4203647;28;20321;-49
2022/12/27 00:51:54;;;;;;;2.58;1.50;;;;;;;4.16;100.00;99498.38;4199206;28;20242;-49
2022/12/27 00:53:56;;;;;;;3.25;1.67;;;;;;;4.05;100.00;99496.13;4215408;27;20218;-49
2022/12/27 00:55:58;;;;;;;2.63;1.70;;;;;;;3.97;100.00;99499.78;4219110;27;20202;-50
2022/12/27 00:58:00;;;;;;;1.50;1.13;;;;;;;4.00;100.00;99502.09;4202935;28;20298;-49
2022/12/27 01:00:04;;;;;;;2.83;1.70;;;;;;;4.05;100.00;99499.69;4199020;28;20257;-50
2022/12/27 01:02:11;;;;;;;1.33;1.27;;;;;;;4.21;100.00;99502.22;4219008;27;20226;-50
2022/12/27 01:04:13;;;;;;;1.70;1.60;;;;;;;4.05;100.00;99501.53;4200267;28;20543;-49
2022/12/27 01:06:17;;;;;;;1.73;1.50;;;;;;;4.03;100.00;99504.44;4198303;28;20293;-49
2022/12/27 01:08:19;;;;;;;1.20;1.10;;;;;;;4.14;100.00;99509.41;4217773;27;20216;-49
2022/12/27 01:10:20;;;;;;;3.03;1.73;;;;;;;4.07;100.00;99519.28;4200134;28;20243;-49
2022/12/27 01:12:22;;;;;;;2.78;1.33;;;;;;;4.07;100.00;99522.00;4187184;28;20720;-50
2022/12/27 01:14:24;;;;;;;2.03;1.92;;;;;;;4.03;100.00;99526.13;4203799;28;20257;-48
2022/12/27 01:16:27;;;;;;;2.67;1.67;;;;;;;4.10;100.00;99527.06;4195828;28;20239;-49
2022/12/27 01:18:28;;;;;;;1.35;1.23;;;;;;;4.14;100.00;99522.94;4201895;28;20225;-49
2022/12/27 01:20:30;;;;;;;1.25;1.15;;;;;;;4.07;100.00;99532.81;4188234;28;20276;-49
2022/12/27 01:22:32;;;;;;;1.30;1.15;;;;;;;3.99;100.00;99537.50;4188986;28;20210;-49
2022/12/27 01:24:34;;;;;;;1.60;1.50;;;;;;;4.06;100.00;99531.16;4198534;28;20326;-49
2022/12/27 01:26:35;;;;;;;1.40;1.30;;;;;;;4.05;100.00;99539.44;4217188;28;20214;-50
2022/12/27 01:28:38;;;;;;;1.60;1.42;;;;;;;4.17;100.00;99537.97;4201774;28;20245;-49
2022/12/27 01:30:39;;;;;;;2.70;1.98;;;;;;;4.12;100.00;99545.81;4216039;28;20241;-50
2022/12/27 01:32:41;;;;;;;1.13;1.10;;;;;;;4.17;100.00;99549.66;4216930;28;20256;-50
2022/12/27 01:34:43;;;;;;;1.10;1.10;;;;;;;4.17;100.00;99544.25;4216983;28;20222;-49
2022/12/27 01:36:45;;;;;;;8.55;1.13;;;;;;;4.06;100.00;99552.00;4215626;28;20206;-49
2022/12/27 01:38:47;;;;;;;1.98;1.50;;;;;;;3.97;100.00;99564.75;4215931;28;20261;-49
2022/12/27 01:40:49;;;;;;;1.60;1.50;;;;;;;4.04;100.00;99559.44;4202012;28;21718;-49
2022/12/27 01:42:51;;;;;;;11.88;1.60;;;;;;;3.85;100.00;99571.63;4198127;28;20238;-49
2022/12/27 01:44:55;;;;;;;1.40;1.30;;;;;;;4.00;100.00;99560.84;4186861;28;20242;-49
2022/12/27 01:46:57;;;;;;;1.55;1.45;;;;;;;4.07;100.00;99568.03;4200690;28;20693;-48
2022/12/27 01:48:59;;;;;;;1.38;1.30;;;;;;;4.15;100.00;99567.13;4198558;28;20308;-49
2022/12/27 01:51:05;;;;;;;1.70;1.38;;;;;;;4.08;100.00;99569.72;4187760;28;20716;-49
2022/12/27 01:53:24;;;;;;;1.10;1.10;;;;;;;3.98;100.00;99577.25;4199421;28;20671;-49
2022/12/27 01:55:29;;;;;;;1.65;1.55;;;;;;;4.05;100.00;99572.81;4203558;28;20218;-49
2022/12/27 01:57:31;;;;;;;1.48;1.38;;;;;;;3.95;100.00;99576.78;4215339;28;20570;-49
2022/12/27 01:59:33;;;;;;;3.47;1.48;;;;;;;4.04;100.00;99586.50;4182614;28;20409;-49
2022/12/27 02:01:38;;;;;;;1.30;1.20;;;;;;;3.95;100.00;99587.63;4196339;28;21016;-49
2022/12/27 02:03:47;;;;;;;3.45;1.40;;;;;;;4.02;100.00;99584.00;4198717;28;20203;-49
2022/12/27 02:05:49;;;;;;;1.02;1.02;;;;;;;4.05;100.00;99586.34;4216380;28;20287;-49
2022/12/27 02:08:12;;;;;;;1.75;1.65;;;;;;;4.03;100.00;99598.38;4200027;28;20203;-49
2022/12/27 02:10:15;;;;;;;4.03;1.33;;;;;;;4.10;100.00;99592.06;4203706;28;20234;-49
2022/12/27 02:12:17;;;;;;;1.77;1.67;;;;;;;4.02;100.00;99599.41;4202215;28;20297;-49
2022/12/27 02:14:40;;;;;;;1.27;1.17;;;;;;;4.04;100.00;99592.78;4204444;28;20313;-48
2022/12/27 02:16:42;;;;;;;4.03;1.95;;;;;;;4.00;100.00;99596.03;4200758;28;20239;-49
2022/12/27 02:18:45;;;;;;;2.30;1.73;;;;;;;4.03;100.00;99591.09;4201238;28;20840;-49
2022/12/27 02:21:05;;;;;;;1.55;1.45;;;;;;;3.96;100.00;99600.97;4204385;28;20217;-49
2022/12/27 02:26:24;;;;;;;1.40;1.30;;;;;;;3.94;100.00;99607.59;4222922;27;20581;-49
2022/12/27 02:28:29;;;;;;;5.25;1.25;;;;;;;3.93;100.00;99601.31;4178776;28;20893;-48
2022/12/27 02:30:32;;;;;;;1.27;1.17;;;;;;;4.08;100.00;99610.31;4218711;28;20203;-48
2022/12/27 02:32:40;;;;;;;3.10;1.05;;;;;;;4.02;100.00;99594.84;4206790;28;20207;-50
2022/12/27 02:34:57;;;;;;;2.10;1.45;;;;;;;3.97;100.00;99602.66;4201470;28;20361;-49
2022/12/27 02:37:04;;;;;;;2.20;1.42;;;;;;;3.89;100.00;99601.88;4217710;28;20228;-49
2022/12/27 02:39:08;;;;;;;6.82;1.60;;;;;;;3.86;100.00;99594.97;4199481;28;20261;-49
2022/12/27 02:54:09;;;;;;;1.48;1.38;;;;;;;3.90;100.00;99606.25;4191726;27;20276;-49
2022/12/27 02:58:48;;;;;;;1.92;1.42;;;;;;;3.93;100.00;99617.56;4217669;27;20746;-49
2022/12/27 03:03:30;;;;;;;0.88;0.88;;;;;;;3.89;100.00;99610.84;4203502;27;20202;-50
2022/12/27 03:08:46;;;;;;;3.42;1.10;;;;;;;3.82;100.00;99612.59;4218656;28;20344;-49
2022/12/27 03:16:36;;;;;;;1.60;1.50;;;;;;;3.78;100.00;99605.84;4218650;27;20292;-49
2022/12/27 03:19:02;;;;;;;1.98;1.63;;;;;;;3.77;100.00;99606.88;4181080;28;20230;-50
2022/12/27 03:25:49;;;;;;;2.38;1.70;;;;;;;3.82;100.00;99599.06;4220560;27;20302;-49
2022/12/27 03:33:11;;;;;;;1.70;1.10;;;;;;;3.81;100.00;99599.25;4218214;27;20290;-49
2022/12/27 03:35:16;;;;;;;1.80;1.55;;;;;;;3.81;100.00;99591.13;4195608;28;20226;-49
2022/12/27 03:40:06;;;;;;;3.72;1.60;;;;;;;3.82;100.00;99588.25;4216868;27;20705;-49
2022/12/27 03:44:34;;;;;;;1.33;1.23;;;;;;;3.83;100.00;99594.47;4218906;28;20286;-49
2022/12/27 03:46:37;;;;;;;2.08;1.40;;;;;;;3.88;100.00;99598.31;4199264;28;20211;-49
2022/12/27 03:48:52;;;;;;;3.15;1.33;;;;;;;3.81;100.00;99599.25;4218445;27;20232;-49
2022/12/27 03:51:03;;;;;;;7.15;2.00;;;;;;;3.81;100.00;99602.78;4202935;28;20610;-48
2022/12/27 03:53:12;;;;;;;1.60;1.42;;;;;;;3.80;100.00;99603.78;4200873;27;20203;-49
2022/12/27 03:55:15;;;;;;;1.50;1.40;;;;;;;3.78;100.00;99608.56;4198988;28;20260;-48
2022/12/27 03:57:20;;;;;;;1.65;1.55;;;;;;;3.83;100.00;99600.75;4189907;28;20313;-50
2022/12/27 03:59:22;;;;;;;1.05;0.95;;;;;;;3.81;100.00;99610.88;4202164;28;20320;-49
2022/12/27 04:01:23;;;;;;;1.23;1.23;;;;;;;3.82;100.00;99611.75;4220010;27;20234;-49
2022/12/27 04:03:25;;;;;;;1.63;1.52;;;;;;;3.75;100.00;99603.50;4200769;28;20682;-49
2022/12/27 04:05:27;;;;;;;1.00;1.00;;;;;;;3.81;100.00;99616.31;4200574;28;21037;-49
2022/12/27 04:07:29;;;;;;;1.88;1.33;;;;;;;3.89;100.00;99621.69;4187616;28;20230;-49
2022/12/27 04:35:13;;;;;;;1.70;1.60;;;;;;;3.74;100.00;99634.28;4217337;28;20229;-50
2022/12/27 04:37:17;;;;;;;4.43;1.88;;;;;;;3.74;100.00;99626.16;4200996;28;20702;-49
2022/12/27 04:39:19;;;;;;;1.33;1.20;;;;;;;3.71;100.00;99626.53;4203052;28;20277;-49
2022/12/27 04:55:39;;;;;;;1.60;1.48;;;;;;;3.65;100.00;99624.53;4214880;27;20226;-49
2022/12/27 04:57:41;;;;;;;1.48;0.93;;;;;;;3.60;100.00;99618.81;4199710;28;20227;-49
2022/12/27 05:02:02;;;;;;;8.48;1.92;;;;;;;3.49;100.00;99613.84;4217756;27;20697;-50
2022/12/27 05:04:05;;;;;;;6.20;1.40;;;;;;;3.50;100.00;99615.53;4217917;27;20230;-49
2022/12/27 05:06:06;;;;;;;2.28;2.15;;;;;;;3.52;100.00;99618.88;4218198;27;20946;-49
2022/12/27 05:15:10;;;;;;;1.40;1.30;;;;;;;3.42;100.00;99639.94;4217334;27;20254;-49
2022/12/27 05:17:12;;;;;;;2.03;0.95;;;;;;;3.42;100.00;99629.09;4200800;28;20206;-49
2022/12/27 05:19:14;;;;;;;2.80;1.48;;;;;;;3.54;100.00;99632.25;4205803;28;20246;-50
2022/12/27 05:21:16;;;;;;;1.63;1.00;;;;;;;3.39;100.00;99634.84;4198470;28;22184;-49
2022/12/27 05:25:43;;;;;;;1.25;1.15;;;;;;;3.34;100.00;99637.22;4216081;28;20236;-48
2022/12/27 05:27:45;;;;;;;5.05;1.70;;;;;;;3.40;100.00;99633.00;4217089;27;20214;-48
2022/12/27 05:29:47;;;;;;;2.38;1.80;;;;;;;3.44;100.00;99643.28;4213666;27;20237;-49
2022/12/27 05:31:48;;;;;;;1.20;1.20;;;;;;;3.31;100.00;99643.00;4202386;28;20897;-49
2022/12/27 05:33:52;;;;;;;2.05;1.48;;;;;;;3.27;100.00;99641.66;4196590;28;20206;-49
2022/12/27 05:35:57;;;;;;;1.60;1.50;;;;;;;3.24;100.00;99647.44;4200311;28;20341;-48
2022/12/27 05:37:59;;;;;;;1.50;1.40;;;;;;;3.21;100.00;99639.66;4202366;28;20230;-50
2022/12/27 05:40:01;;;;;;;3.40;1.20;;;;;;;3.23;100.00;99644.91;4211769;27;20301;-50
2022/12/27 05:42:03;;;;;;;1.65;1.55;;;;;;;3.25;100.00;99643.72;4216595;28;20297;-50
2022/12/27 05:44:04;;;;;;;2.00;1.52;;;;;;;3.15;100.00;99653.88;4206033;28;20214;-49
2022/12/27 05:46:12;;;;;;;1.83;1.50;;;;;;;3.27;100.00;99652.47;4207815;27;20211;-49
2022/12/27 05:48:14;;;;;;;2.65;1.75;;;;;;;3.17;100.00;99657.28;4209880;28;20198;-50
2022/12/27 05:50:15;;;;;;;2.53;2.33;;;;;;;3.23;100.00;99651.16;4210730;28;20285;-50
2022/12/27 05:52:18;;;;;;;2.60;1.90;;;;;;;3.23;100.00;99653.03;4217730;27;20262;-49
2022/12/27 05:54:19;;;;;;;2.15;1.98;;;;;;;3.19;100.00;99659.78;4204253;28;20229;-49
2022/12/27 05:56:21;;;;;;;2.80;1.58;;;;;;;3.19;100.00;99671.47;4193184;28;20302;-49
2022/12/27 05:58:23;;;;;;;3.50;1.30;;;;;;;3.23;100.00;99664.69;4204044;28;20230;-49
2022/12/27 06:00:25;;;;;;;1.55;1.45;;;;;;;3.24;100.00;99668.22;4223523;27;20233;-49
2022/12/27 06:02:27;;;;;;;2.50;1.80;;;;;;;3.21;100.00;99677.53;4208530;28;20207;-50
2022/12/27 06:04:29;;;;;;;1.88;1.77;;;;;;;3.23;100.00;99678.22;4208423;28;20318;-49
2022/12/27 06:06:30;;;;;;;2.90;2.42;;;;;;;3.28;100.00;99686.63;4206948;28;20954;-49
2022/12/27 06:08:33;;;;;;;2.17;1.92;;;;;;;3.29;100.00;99682.94;4203468;28;20236;-50
2022/12/27 06:10:34;;;;;;;1.20;1.15;;;;;;;3.22;100.00;99681.94;4203084;28;20224;-49
2022/12/27 06:12:36;;;;;;;2.80;2.47;;;;;;;3.25;100.00;99681.56;4201848;28;20289;-49
2022/12/27 06:14:40;;;;;;;3.08;2.55;;;;;;;3.18;100.00;99679.75;4220499;27;20269;-49
2022/12/27 06:16:42;;;;;;;1.70;1.60;;;;;;;3.16;100.00;99684.50;4203305;28;20215;-48
2022/12/27 06:18:44;;;;;;;1.88;1.75;;;;;;;3.19;100.00;99682.28;4208862;28;20226;-49
2022/12/27 06:20:46;;;;;;;2.65;1.92;;;;;;;3.23;100.00;99688.19;4198223;28;20608;-49
2022/12/27 06:22:47;;;;;;;3.75;1.98;;;;;;;3.18;100.00;99687.84;4203033;28;20309;-48
2022/12/27 06:24:49;;;;;;;2.10;2.00;;;;;;;3.07;100.00;99699.06;4219305;27;20749;-48
2022/12/27 06:26:51;;;;;;;5.82;2.58;;;;;;;3.08;100.00;99698.88;4208286;28;20235;-49
2022/12/27 06:28:54;;;;;;;2.15;1.95;;;;;;;2.99;100.00;99701.75;4209828;28;20257;-49
2022/12/27 06:30:58;;;;;;;3.28;2.30;;;;;;;2.96;100.00;99705.69;4204879;28;20365;-49
2022/12/27 06:32:59;;;;;;;3.33;3.13;;;;;;;3.12;100.00;99713.72;4222729;27;20238;-49
2022/12/27 06:35:01;;;;;;;7.78;5.65;;;;;;;3.17;100.00;99705.97;4205463;28;20233;-49
2022/12/27 06:37:03;;;;;;;4.95;4.30;;;;;;;3.01;100.00;99708.69;4202885;28;20320;-49
2022/12/27 06:39:05;;;;;;;10.27;6.43;;;;;;;3.03;100.00;99706.69;4201843;28;20604;-49
2022/12/27 06:41:11;;;;;;;5.47;4.97;;;;;;;3.02;100.00;99702.25;4203896;28;20317;-49
2022/12/27 06:43:13;;;;;;;5.95;4.22;;;;;;;3.08;100.00;99701.56;4207947;28;20202;-49
2022/12/27 06:45:15;;;;;;;4.82;4.43;;;;;;;3.14;100.00;99709.00;4217570;27;20285;-49
2022/12/27 06:47:17;;;;;;;9.05;3.75;;;;;;;3.09;100.00;99706.00;4205752;28;20198;-49
2022/12/27 06:49:18;;;;;;;4.40;3.53;;;;;;;3.06;100.00;99706.31;4219033;27;20302;-49
2022/12/27 06:51:20;;;;;;;4.53;3.78;;;;;;;3.07;100.00;99702.59;4216056;28;20273;-49
2022/12/27 06:53:22;;;;;;;4.68;3.83;;;;;;;3.01;100.00;99700.56;4191829;28;20286;-50
2022/12/27 06:55:24;;;;;;;2.90;2.70;;;;;;;3.03;100.00;99703.97;4205260;28;20302;-49
2022/12/27 06:57:26;;;;;;;3.40;3.10;;;;;;;3.05;100.00;99701.94;4201369;28;20234;-49
2022/12/27 06:59:28;;;;;;;6.60;5.78;;;;;;;2.88;100.00;99699.44;4190167;28;20692;-49
2022/12/27 07:01:29;;;;;;;8.30;4.28;;;;;;;2.95;100.00;99703.16;4202429;28;20231;-49
2022/12/27 07:03:31;;;;;;;6.80;3.85;;;;;;;2.98;100.00;99706.34;4216776;27;20603;-49
2022/12/27 07:05:36;;;;;;;5.20;3.88;;;;;;;3.02;100.00;99713.06;4203061;28;20199;-49
2022/12/27 07:07:38;;;;;;;3.70;3.40;;;;;;;2.91;100.00;99710.75;4199768;28;20744;-50
2022/12/27 07:09:40;;;;;;;3.60;3.30;;;;;;;2.95;100.00;99700.44;4214221;28;20226;-50
2022/12/27 07:11:41;;;;;;;3.58;3.03;;;;;;;2.97;100.00;99710.06;4200016;28;20234;-49
2022/12/27 07:13:48;;;;;;;6.40;3.95;;;;;;;2.99;100.00;99708.03;4200857;28;20213;-49
2022/12/27 07:15:50;;;;;;;3.72;3.42;;;;;;;3.00;100.00;99720.53;4216575;27;20218;-49
2022/12/27 07:17:52;;;;;;;6.88;4.03;;;;;;;2.93;100.00;99721.41;4206884;28;20210;-49
2022/12/27 07:19:54;;;;;;;4.28;3.42;;;;;;;2.92;100.00;99722.41;4195731;28;20223;-49
2022/12/27 07:21:55;;;;;;;4.75;4.35;;;;;;;2.99;100.00;99729.66;4187714;28;20669;-48
2022/12/27 07:23:57;;;;;;;3.50;3.00;;;;;;;2.94;100.00;99736.59;4216683;27;20248;-49
2022/12/27 07:26:06;;;;;;;4.22;3.88;;;;;;;2.87;100.00;99739.13;4185228;28;20203;-50
2022/12/27 07:28:08;;;;;;;3.72;3.40;;;;;;;2.86;100.00;99740.16;4200720;28;20237;-49
2022/12/27 07:30:10;;;;;;;4.43;4.05;;;;;;;2.93;100.00;99745.72;4201072;28;21096;-48
2022/12/27 07:32:12;;;;;;;4.15;3.75;;;;;;;2.93;100.00;99746.56;4216821;27;20235;-49
2022/12/27 07:34:13;;;;;;;4.75;4.35;;;;;;;3.04;100.00;99732.69;4198185;28;20234;-48
2022/12/27 07:36:22;;;;;;;5.82;3.65;;;;;;;2.88;100.00;99742.69;4203379;28;20251;-48
2022/12/27 07:38:25;;;;;;;4.75;4.35;;;;;;;2.90;100.00;99733.41;4217604;27;20242;-49
2022/12/27 07:40:26;;;;;;;4.68;4.20;;;;;;;3.00;100.00;99739.44;4199539;28;20298;-48
2022/12/27 07:42:28;;;;;;;7.47;5.13;;;;;;;2.99;100.00;99731.50;4189637;28;20236;-49
2022/12/27 07:44:34;;;;;;;5.47;5.00;;;;;;;2.96;100.00;99745.38;4216503;27;20294;-48
2022/12/27 07:46:36;;;;;;;5.22;4.72;;;;;;;2.92;100.00;99755.69;4218727;27;21170;-49
2022/12/27 07:48:41;;;;;;;5.78;4.60;;;;;;;2.73;100.00;99749.81;4203298;28;20321;-45
2022/12/27 07:50:52;;;;;;;4.43;4.03;;;;;;;2.70;100.00;99753.69;4197312;28;20207;-46
2022/12/27 07:52:54;;;;;;;5.55;4.55;;;;;;;2.66;100.00;99759.63;4198050;28;20203;-45
2022/12/27 07:54:56;;;;;;;3.60;3.30;;;;;;;2.85;100.00;99765.50;4219950;27;20202;-46
2022/12/27 07:56:58;;;;;;;5.88;4.07;;;;;;;2.77;100.00;99776.31;4202541;28;20633;-45
2022/12/27 07:59:01;;;;;;;6.40;4.80;;;;;;;2.84;100.00;99766.50;4216897;27;20218;-45
2022/12/27 08:01:03;;;;;;;5.13;4.65;;;;;;;2.91;100.00;99775.63;4200627;28;20210;-46
2022/12/27 08:03:05;;;;;;;8.98;7.15;;;;;;;2.84;100.00;99773.78;4203973;28;20305;-45
2022/12/27 08:05:07;;;;;;;8.98;5.90;;;;;;;2.87;100.00;99779.69;4198792;28;20213;-45
2022/12/27 08:07:14;;;;;;;7.13;6.05;;;;;;;2.87;100.00;99786.97;4199761;28;20289;-45
2022/12/27 08:09:24;;;;;;;6.32;5.82;;;;;;;3.04;100.00;99786.75;4205744;28;20262;-46
2022/12/27 08:11:26;;;;;;;5.18;4.80;;;;;;;3.11;100.00;99787.75;4204494;28;20738;-45
2022/12/27 08:13:28;;;;;;;4.80;4.38;;;;;;;3.14;100.00;99795.53;4200563;28;20273;-45
2022/12/27 08:15:30;;;;;;;6.93;6.28;;;;;;;3.11;100.00;99787.75;4203083;28;20437;-45
2022/12/27 08:17:32;;;;;;;4.50;4.10;;;;;;;3.15;100.00;99778.28;4189787;27;20682;-45
2022/12/27 08:19:34;;;;;;;5.63;4.95;;;;;;;3.17;100.00;99776.25;4200938;28;20241;-46
2022/12/27 08:21:36;;;;;;;5.78;4.32;;;;;;;3.20;100.00;99781.31;4203266;28;20237;-46
2022/12/27 08:23:37;;;;;;;5.25;4.82;;;;;;;3.25;100.00;99778.94;4217564;28;20202;-45
2022/12/27 08:25:39;;;;;;;6.30;5.75;;;;;;;3.30;100.00;99776.56;4189241;28;20801;-45
2022/12/27 08:27:49;;;;;;;4.70;4.30;;;;;;;3.30;100.00;99783.81;4206546;28;20217;-45
2022/12/27 08:29:50;;;;;;;6.30;4.80;;;;;;;3.40;100.00;99787.19;4219880;28;20264;-45
2022/12/27 08:31:52;;;;;;;5.38;4.63;;;;;;;3.44;100.00;99794.78;4187251;28;20612;-45
2022/12/27 08:33:54;;;;;;;5.93;5.32;;;;;;;3.34;100.00;99788.72;4204757;28;20285;-45
2022/12/27 08:36:06;;;;;;;4.22;3.55;;;;;;;3.36;100.00;99786.69;4206067;28;20752;-45
2022/12/27 08:38:28;;;;;;;5.00;4.60;;;;;;;3.41;100.00;99784.28;4201209;27;21227;-46
2022/12/27 08:40:30;;;;;;;11.82;5.47;;;;;;;3.40;100.00;99788.03;4189857;28;20211;-46
2022/12/27 08:42:32;;;;;;;5.20;4.53;;;;;;;3.47;100.00;99783.59;4203142;28;20307;-46
2022/12/27 08:44:35;;;;;;;4.45;4.05;;;;;;;3.50;100.00;99782.41;4203261;28;20638;-46
2022/12/27 08:46:48;;;;;;;4.85;4.45;;;;;;;3.44;100.00;99792.06;4216674;27;20210;-46
2022/12/27 08:48:50;;;;;;;8.13;3.83;;;;;;;3.52;100.00;99786.63;4219557;27;20304;-46
2022/12/27 08:51:05;;;;;;;5.30;4.80;;;;;;;3.61;100.00;99798.28;4188405;28;21200;-46
2022/12/27 08:53:14;;;;;;;5.80;5.32;;;;;;;3.57;100.00;99794.22;4188389;28;20660;-46
2022/12/27 08:55:15;;;;;;;6.18;4.60;;;;;;;3.70;100.00;99795.38;4217818;27;20201;-46
2022/12/27 08:57:17;;;;;;;6.72;6.13;;;;;;;3.68;100.00;99797.38;4203226;28;20232;-45
2022/12/27 08:59:19;;;;;;;5.65;5.15;;;;;;;3.68;100.00;99796.56;4216539;28;20261;-46
2022/12/27 09:01:21;;;;;;;5.22;4.82;;;;;;;3.78;100.00;99811.56;4198663;28;20241;-45
2022/12/27 09:03:23;;;;;;;11.80;4.28;;;;;;;3.79;100.00;99809.69;4197502;28;20260;-46
2022/12/27 09:05:26;;;;;;;5.63;5.10;;;;;;;3.85;100.00;99804.44;4216381;28;20206;-46
2022/12/27 09:07:27;;;;;;;6.72;4.38;;;;;;;3.93;100.00;99811.69;4205443;28;20230;-46
2022/12/27 09:09:29;;;;;;;13.27;4.82;;;;;;;3.93;100.00;99807.09;4199292;28;20317;-45
2022/12/27 09:11:33;;;;;;;7.80;4.75;;;;;;;3.91;100.00;99813.69;4186629;28;20203;-46
2022/12/27 09:13:34;;;;;;;6.32;4.95;;;;;;;3.86;100.00;99811.53;4218130;27;20626;-45
2022/12/27 09:15:37;;;;;;;5.03;3.65;;;;;;;3.84;100.00;99810.00;4199806;28;21662;-45
2022/12/27 09:17:39;;;;;;;4.10;3.70;;;;;;;3.95;100.00;99815.06;4203666;28;20222;-46
2022/12/27 09:19:41;;;;;;;4.07;3.72;;;;;;;3.99;100.00;99806.38;4214921;28;20305;-45
2022/12/27 09:21:43;;;;;;;4.63;3.60;;;;;;;3.90;100.00;99812.88;4197932;28;20936;-45
2022/12/27 09:23:45;;;;;;;7.90;3.15;;;;;;;3.95;100.00;99809.63;4190269;28;20218;-46
2022/12/27 09:25:47;;;;;;;4.13;2.38;;;;;;;3.96;100.00;99812.19;4194216;28;20199;-46
2022/12/27 09:27:49;;;;;;;5.15;3.60;;;;;;;4.02;100.00;99811.47;4184934;28;20674;-45
2022/12/27 09:29:50;;;;;;;7.38;3.00;;;;;;;4.06;100.00;99801.13;4215160;27;20309;-46
2022/12/27 09:31:52;;;;;;;2.80;2.60;;;;;;;4.09;100.00;99801.63;4196985;28;20285;-46
2022/12/27 09:33:54;;;;;;;4.93;3.42;;;;;;;4.11;100.00;99810.41;4214733;28;20281;-46
2022/12/27 09:36:04;;;;;;;3.55;3.22;;;;;;;4.10;100.00;99814.13;4214275;28;20262;-46
2022/12/27 09:38:05;;;;;;;6.53;3.40;;;;;;;4.12;100.00;99805.81;4200867;28;20229;-46
2022/12/27 09:40:12;;;;;;;4.57;3.97;;;;;;;4.17;100.00;99815.09;4179824;28;20370;-46
2022/12/27 09:42:20;;;;;;;4.13;3.22;;;;;;;4.21;100.00;99811.00;4215494;28;20331;-45
2022/12/27 09:44:50;;;;;;;4.50;2.95;;;;;;;4.20;100.00;99803.06;4201776;28;20209;-46
2022/12/27 09:47:04;;;;;;;2.65;2.45;;;;;;;4.14;100.00;99818.16;4216624;28;21078;-46
2022/12/27 09:49:13;;;;;;;11.73;3.30;;;;;;;4.21;100.00;99813.72;4197455;28;20266;-45
2022/12/27 09:51:26;;;;;;;9.50;2.88;;;;;;;4.17;100.00;99820.53;4199582;28;20288;-46
2022/12/27 09:53:46;;;;;;;3.97;2.88;;;;;;;4.24;100.00;99816.09;4214128;28;20590;-46
2022/12/27 09:55:57;;;;;;;6.13;2.58;;;;;;;4.23;100.00;99813.53;4203911;28;20237;-45
2022/12/27 09:58:12;;;;;;;3.47;3.17;;;;;;;4.24;100.00;99818.78;4198091;28;20297;-46
2022/12/27 10:00:23;;;;;;;4.10;3.45;;;;;;;4.25;100.00;99822.31;4200036;28;20232;-46
2022/12/27 10:02:36;;;;;;;4.32;2.70;;;;;;;4.35;100.00;99818.38;4206109;28;20240;-46
2022/12/27 10:04:38;;;;;;;2.67;2.42;;;;;;;4.32;100.00;99810.59;4189366;28;20838;-46
2022/12/27 10:07:28;;;;;;;3.55;3.25;;;;;;;4.31;100.00;99817.06;4201933;28;20573;-45
2022/12/27 10:10:03;;;;;;;3.40;3.10;;;;;;;4.39;100.00;99814.28;4200071;28;20234;-46
2022/12/27 10:12:19;;;;;;;4.78;2.65;;;;;;;4.36;100.00;99809.25;4199653;28;20194;-45
2022/12/27 10:14:52;;;;;;;8.35;4.95;;;;;;;4.46;100.00;99809.00;4216873;28;20234;-45
2022/12/27 10:18:01;;;;;;;5.15;3.88;;;;;;;4.43;100.00;99798.50;4214719;28;20268;-46
2022/12/27 10:20:44;;;;;;;7.78;5.68;;;;;;;4.47;100.00;99800.69;4125479;28;20225;-45
2022/12/27 10:22:50;;;;;;;5.82;4.82;;;;;;;4.54;100.00;99812.47;4196111;28;20211;-46
2022/12/27 10:24:54;;;;;;;5.70;3.90;;;;;;;4.51;100.00;99812.84;4199710;28;20381;-47
2022/12/27 10:26:57;;;;;;;13.50;7.28;;;;;;;4.51;100.00;99809.28;4216766;28;20272;-46
2022/12/27 10:29:01;;;;;;;7.72;5.25;;;;;;;4.57;100.00;99809.44;4219508;28;20254;-46
2022/12/27 10:31:03;;;;;;;8.57;3.92;;;;;;;4.64;100.00;99809.53;4200481;28;20262;-46
2022/12/27 10:33:13;;;;;;;5.25;4.95;;;;;;;4.63;100.00;99799.72;4206561;28;20301;-46
2022/12/27 10:35:17;;;;;;;5.43;3.88;;;;;;;4.66;100.00;99800.19;4188035;28;20247;-45
2022/12/27 10:37:19;;;;;;;3.92;3.65;;;;;;;4.63;100.00;99794.31;4219909;27;20229;-46
2022/12/27 10:39:28;;;;;;;5.60;3.65;;;;;;;4.63;100.00;99788.88;4200981;28;20243;-46
2022/12/27 10:41:52;;;;;;;4.68;4.20;;;;;;;4.62;100.00;99798.91;4217357;27;20843;-46
2022/12/27 10:43:54;;;;;;;4.43;3.90;;;;;;;4.58;100.00;99789.44;4203488;28;20225;-46
2022/12/27 10:46:10;;;;;;;10.43;6.95;;;;;;;4.64;100.00;99786.00;4201382;28;20676;-46
2022/12/27 10:48:21;;;;;;;8.23;7.22;;;;;;;4.69;100.00;99793.56;4221647;27;20259;-46
2022/12/27 10:50:25;;;;;;;6.32;4.78;;;;;;;4.70;100.00;99796.13;4206867;28;20207;-47
2022/12/27 10:52:30;;;;;;;4.53;3.78;;;;;;;4.70;100.00;99790.69;4201122;28;20295;-46
2022/12/27 10:54:33;;;;;;;12.02;5.15;;;;;;;4.69;100.00;99788.16;4205682;28;20238;-46
2022/12/27 10:56:43;;;;;;;4.72;4.32;;;;;;;4.82;100.00;99783.81;4207183;28;20226;-46
2022/12/27 10:58:50;;;;;;;13.43;5.35;;;;;;;4.92;100.00;99783.53;4219023;27;20232;-46
2022/12/27 11:00:59;;;;;;;4.65;3.45;;;;;;;4.91;100.00;99788.13;4207275;28;20198;-47
2022/12/27 11:03:01;;;;;;;4.68;3.95;;;;;;;4.99;100.00;99782.63;4206946;28;20783;-47
2022/12/27 11:05:03;;;;;;;4.60;2.88;;;;;;;5.10;100.00;99793.03;4191212;28;20333;-46
2022/12/27 11:07:14;;;;;;;5.20;3.13;;;;;;;5.17;100.00;99788.56;4190873;28;20243;-46
2022/12/27 11:09:37;;;;;;;6.55;2.53;;;;;;;5.19;100.00;99789.22;4204856;28;20222;-46
2022/12/27 11:11:39;;;;;;;3.30;2.25;;;;;;;5.21;100.00;99790.72;4221478;28;20210;-46
2022/12/27 11:13:41;;;;;;;3.25;2.63;;;;;;;5.27;100.00;99781.00;4187775;28;20253;-46
2022/12/27 11:15:53;;;;;;;2.35;2.15;;;;;;;5.31;100.00;99774.19;4197892;28;20779;-46
2022/12/27 11:18:10;;;;;;;5.93;2.13;;;;;;;5.17;100.00;99777.72;4219068;27;20203;-46
2022/12/27 11:20:31;;;;;;;3.25;1.77;;;;;;;5.27;100.00;99767.41;4204082;28;20714;-46
2022/12/27 11:22:52;;;;;;;2.30;1.92;;;;;;;5.30;100.00;99775.22;4216160;27;20498;-46
2022/12/27 11:24:56;;;;;;;2.55;2.45;;;;;;;5.35;100.00;99775.50;4204129;28;20305;-46
2022/12/27 11:26:58;;;;;;;1.80;1.70;;;;;;;5.46;100.00;99772.31;4204840;28;20237;-46